sensor_id;sensor_type;location;lat;lon;timestamp;P1;durP1;ratioP1;P2;durP2;ratioP2
3095;SDS011;1558;42.700;23.360;2023-04-06T00:02:17;14.30;;;12.90;;
3095;SDS011;1558;42.700;23.360;2023-04-06T00:04:46;13.47;;;12.17;;
3095;SDS011;1558;42.700;23.360;2023-04-06T00:07:14;14.37;;;12.97;;
3095;SDS011;1558;42.700;23.360;2023-04-06T00:09:43;14.60;;;13.13;;
3095;SDS011;1558;42.700;23.360;2023-04-06T00:12:11;13.80;;;12.50;;
3095;SDS011;1558;42.700;23.360;2023-04-06T00:14:39;14.77;;;13.27;;
3095;SDS011;1558;42.700;23.360;2023-04-06T00:17:07;16.60;;;13.40;;
3095;SDS011;1558;42.700;23.360;2023-04-06T00:19:36;13.47;;;12.10;;
3095;SDS011;1558;42.700;23.360;2023-04-06T00:22:05;13.23;;;11.97;;
3095;SDS011;1558;42.700;23.360;2023-04-06T00:24:34;13.63;;;12.23;;
3095;SDS011;1558;42.700;23.360;2023-04-06T00:27:02;12.60;;;11.37;;
3095;SDS011;1558;42.700;23.360;2023-04-06T00:29:30;13.37;;;11.97;;
3095;SDS011;1558;42.700;23.360;2023-04-06T00:31:58;14.00;;;12.57;;
3095;SDS011;1558;42.700;23.360;2023-04-06T00:34:26;15.80;;;14.10;;
3095;SDS011;1558;42.700;23.360;2023-04-06T00:36:54;13.40;;;12.00;;
3095;SDS011;1558;42.700;23.360;2023-04-06T00:39:24;13.97;;;12.57;;
3095;SDS011;1558;42.700;23.360;2023-04-06T00:41:52;13.23;;;11.93;;
3095;SDS011;1558;42.700;23.360;2023-04-06T00:44:21;14.27;;;12.80;;
3095;SDS011;1558;42.700;23.360;2023-04-06T00:46:49;13.30;;;11.90;;
3095;SDS011;1558;42.700;23.360;2023-04-06T00:49:18;12.90;;;11.53;;
3095;SDS011;1558;42.700;23.360;2023-04-06T00:51:46;12.33;;;11.03;;
3095;SDS011;1558;42.700;23.360;2023-04-06T00:54:14;13.27;;;11.63;;
3095;SDS011;1558;42.700;23.360;2023-04-06T00:56:44;14.10;;;12.60;;
3095;SDS011;1558;42.700;23.360;2023-04-06T00:59:12;12.57;;;11.27;;
3095;SDS011;1558;42.700;23.360;2023-04-06T01:01:40;11.43;;;10.23;;
3095;SDS011;1558;42.700;23.360;2023-04-06T01:04:08;13.30;;;12.00;;
3095;SDS011;1558;42.700;23.360;2023-04-06T01:06:37;13.33;;;11.60;;
3095;SDS011;1558;42.700;23.360;2023-04-06T01:09:05;14.60;;;12.03;;
3095;SDS011;1558;42.700;23.360;2023-04-06T01:11:33;13.57;;;12.17;;
3095;SDS011;1558;42.700;23.360;2023-04-06T01:14:04;12.50;;;11.30;;
3095;SDS011;1558;42.700;23.360;2023-04-06T01:16:33;13.27;;;11.80;;
3095;SDS011;1558;42.700;23.360;2023-04-06T01:19:04;11.70;;;10.53;;
3095;SDS011;1558;42.700;23.360;2023-04-06T01:21:35;12.10;;;10.70;;
3095;SDS011;1558;42.700;23.360;2023-04-06T01:24:06;11.63;;;10.40;;
3095;SDS011;1558;42.700;23.360;2023-04-06T01:26:35;11.93;;;10.83;;
3095;SDS011;1558;42.700;23.360;2023-04-06T01:29:03;11.30;;;10.20;;
3095;SDS011;1558;42.700;23.360;2023-04-06T01:31:32;10.23;;;9.30;;
3095;SDS011;1558;42.700;23.360;2023-04-06T01:34:00;11.17;;;10.00;;
3095;SDS011;1558;42.700;23.360;2023-04-06T01:36:28;10.33;;;9.33;;
3095;SDS011;1558;42.700;23.360;2023-04-06T01:38:56;11.90;;;10.70;;
3095;SDS011;1558;42.700;23.360;2023-04-06T01:41:26;11.50;;;10.40;;
3095;SDS011;1558;42.700;23.360;2023-04-06T01:43:54;11.67;;;10.67;;
3095;SDS011;1558;42.700;23.360;2023-04-06T01:46:22;11.37;;;10.17;;
3095;SDS011;1558;42.700;23.360;2023-04-06T01:48:50;11.53;;;10.43;;
3095;SDS011;1558;42.700;23.360;2023-04-06T01:51:18;11.23;;;10.07;;
3095;SDS011;1558;42.700;23.360;2023-04-06T01:53:46;11.97;;;10.90;;
3095;SDS011;1558;42.700;23.360;2023-04-06T01:56:15;12.30;;;11.10;;
3095;SDS011;1558;42.700;23.360;2023-04-06T01:58:45;12.20;;;11.10;;
3095;SDS011;1558;42.700;23.360;2023-04-06T02:01:13;12.73;;;11.27;;
3095;SDS011;1558;42.700;23.360;2023-04-06T02:03:41;12.67;;;11.47;;
3095;SDS011;1558;42.700;23.360;2023-04-06T02:06:09;12.03;;;10.43;;
3095;SDS011;1558;42.700;23.360;2023-04-06T02:08:37;12.60;;;11.40;;
3095;SDS011;1558;42.700;23.360;2023-04-06T02:11:05;12.83;;;11.63;;
3095;SDS011;1558;42.700;23.360;2023-04-06T02:13:33;12.60;;;11.30;;
3095;SDS011;1558;42.700;23.360;2023-04-06T02:16:03;12.03;;;10.83;;
3095;SDS011;1558;42.700;23.360;2023-04-06T02:18:32;11.30;;;10.17;;
3095;SDS011;1558;42.700;23.360;2023-04-06T02:21:00;11.47;;;10.47;;
3095;SDS011;1558;42.700;23.360;2023-04-06T02:23:28;12.23;;;11.07;;
3095;SDS011;1558;42.700;23.360;2023-04-06T02:25:56;12.43;;;11.23;;
3095;SDS011;1558;42.700;23.360;2023-04-06T02:28:24;11.83;;;10.63;;
3095;SDS011;1558;42.700;23.360;2023-04-06T02:30:52;12.00;;;10.83;;
3095;SDS011;1558;42.700;23.360;2023-04-06T02:33:22;12.93;;;11.63;;
3095;SDS011;1558;42.700;23.360;2023-04-06T02:35:50;13.50;;;12.20;;
3095;SDS011;1558;42.700;23.360;2023-04-06T02:38:18;16.57;;;12.90;;
3095;SDS011;1558;42.700;23.360;2023-04-06T02:40:46;14.50;;;13.00;;
3095;SDS011;1558;42.700;23.360;2023-04-06T02:43:14;13.40;;;12.13;;
3095;SDS011;1558;42.700;23.360;2023-04-06T02:45:43;15.17;;;13.67;;
3095;SDS011;1558;42.700;23.360;2023-04-06T02:48:11;14.33;;;12.93;;
3095;SDS011;1558;42.700;23.360;2023-04-06T02:50:40;15.17;;;13.47;;
3095;SDS011;1558;42.700;23.360;2023-04-06T02:53:08;15.23;;;13.83;;
3095;SDS011;1558;42.700;23.360;2023-04-06T02:55:37;14.70;;;13.20;;
3095;SDS011;1558;42.700;23.360;2023-04-06T02:58:05;17.10;;;15.40;;
3095;SDS011;1558;42.700;23.360;2023-04-06T03:00:33;15.83;;;14.23;;
3095;SDS011;1558;42.700;23.360;2023-04-06T03:03:02;14.30;;;12.80;;
3095;SDS011;1558;42.700;23.360;2023-04-06T03:05:30;12.17;;;10.93;;
3095;SDS011;1558;42.700;23.360;2023-04-06T03:08:00;10.30;;;9.27;;
3095;SDS011;1558;42.700;23.360;2023-04-06T03:10:28;9.70;;;8.80;;
3095;SDS011;1558;42.700;23.360;2023-04-06T03:12:57;10.40;;;9.27;;
3095;SDS011;1558;42.700;23.360;2023-04-06T03:15:25;9.80;;;8.80;;
3095;SDS011;1558;42.700;23.360;2023-04-06T03:17:53;11.63;;;10.53;;
3095;SDS011;1558;42.700;23.360;2023-04-06T03:20:24;11.77;;;10.63;;
3095;SDS011;1558;42.700;23.360;2023-04-06T03:22:52;11.20;;;9.97;;
3095;SDS011;1558;42.700;23.360;2023-04-06T03:25:21;11.40;;;10.30;;
3095;SDS011;1558;42.700;23.360;2023-04-06T03:27:49;13.27;;;11.93;;
3095;SDS011;1558;42.700;23.360;2023-04-06T03:30:18;12.30;;;11.00;;
3095;SDS011;1558;42.700;23.360;2023-04-06T03:32:47;11.03;;;9.97;;
3095;SDS011;1558;42.700;23.360;2023-04-06T03:35:15;10.27;;;9.27;;
3095;SDS011;1558;42.700;23.360;2023-04-06T03:37:43;10.80;;;9.80;;
3095;SDS011;1558;42.700;23.360;2023-04-06T03:40:11;11.67;;;10.47;;
3095;SDS011;1558;42.700;23.360;2023-04-06T03:42:41;11.63;;;10.53;;
3095;SDS011;1558;42.700;23.360;2023-04-06T03:45:09;11.57;;;9.47;;
3095;SDS011;1558;42.700;23.360;2023-04-06T03:47:39;11.47;;;9.20;;
3095;SDS011;1558;42.700;23.360;2023-04-06T03:50:07;12.23;;;10.93;;
3095;SDS011;1558;42.700;23.360;2023-04-06T03:52:36;13.13;;;11.73;;
3095;SDS011;1558;42.700;23.360;2023-04-06T03:55:04;13.93;;;12.53;;
3095;SDS011;1558;42.700;23.360;2023-04-06T03:57:33;13.17;;;11.97;;
3095;SDS011;1558;42.700;23.360;2023-04-06T04:00:03;14.77;;;13.33;;
3095;SDS011;1558;42.700;23.360;2023-04-06T04:02:32;13.90;;;12.50;;
3095;SDS011;1558;42.700;23.360;2023-04-06T04:05:00;15.20;;;13.60;;
3095;SDS011;1558;42.700;23.360;2023-04-06T04:07:28;14.00;;;12.53;;
3095;SDS011;1558;42.700;23.360;2023-04-06T04:09:57;15.63;;;14.13;;
3095;SDS011;1558;42.700;23.360;2023-04-06T04:12:25;15.63;;;14.03;;
3095;SDS011;1558;42.700;23.360;2023-04-06T04:14:53;14.83;;;12.87;;
3095;SDS011;1558;42.700;23.360;2023-04-06T04:17:22;14.37;;;12.97;;
3095;SDS011;1558;42.700;23.360;2023-04-06T04:19:51;13.87;;;12.47;;
3095;SDS011;1558;42.700;23.360;2023-04-06T04:22:20;14.13;;;12.73;;
3095;SDS011;1558;42.700;23.360;2023-04-06T04:24:48;13.00;;;11.80;;
3095;SDS011;1558;42.700;23.360;2023-04-06T04:27:16;12.43;;;11.20;;
3095;SDS011;1558;42.700;23.360;2023-04-06T04:29:44;12.67;;;11.30;;
3095;SDS011;1558;42.700;23.360;2023-04-06T04:32:12;12.27;;;10.73;;
3095;SDS011;1558;42.700;23.360;2023-04-06T04:34:42;13.77;;;12.37;;
3095;SDS011;1558;42.700;23.360;2023-04-06T04:37:10;12.97;;;11.60;;
3095;SDS011;1558;42.700;23.360;2023-04-06T04:39:38;12.50;;;11.20;;
3095;SDS011;1558;42.700;23.360;2023-04-06T04:42:06;12.47;;;11.27;;
3095;SDS011;1558;42.700;23.360;2023-04-06T04:44:35;15.90;;;12.03;;
3095;SDS011;1558;42.700;23.360;2023-04-06T04:47:04;13.87;;;10.73;;
3095;SDS011;1558;42.700;23.360;2023-04-06T04:49:32;13.90;;;12.40;;
3095;SDS011;1558;42.700;23.360;2023-04-06T04:52:01;14.53;;;13.03;;
3095;SDS011;1558;42.700;23.360;2023-04-06T04:54:29;14.60;;;13.10;;
3095;SDS011;1558;42.700;23.360;2023-04-06T04:56:57;13.57;;;11.63;;
3095;SDS011;1558;42.700;23.360;2023-04-06T04:59:26;14.40;;;12.63;;
3095;SDS011;1558;42.700;23.360;2023-04-06T05:01:56;14.03;;;12.33;;
3095;SDS011;1558;42.700;23.360;2023-04-06T05:04:24;13.77;;;12.37;;
3095;SDS011;1558;42.700;23.360;2023-04-06T05:07:02;14.53;;;12.57;;
3095;SDS011;1558;42.700;23.360;2023-04-06T05:09:34;15.37;;;13.80;;
3095;SDS011;1558;42.700;23.360;2023-04-06T05:12:02;16.60;;;14.00;;
3095;SDS011;1558;42.700;23.360;2023-04-06T05:14:31;15.47;;;13.30;;
3095;SDS011;1558;42.700;23.360;2023-04-06T05:16:59;15.83;;;13.90;;
3095;SDS011;1558;42.700;23.360;2023-04-06T05:19:27;17.73;;;15.47;;
3095;SDS011;1558;42.700;23.360;2023-04-06T05:21:55;16.80;;;13.13;;
3095;SDS011;1558;42.700;23.360;2023-04-06T05:24:25;18.00;;;13.07;;
3095;SDS011;1558;42.700;23.360;2023-04-06T05:26:53;14.33;;;12.73;;
3095;SDS011;1558;42.700;23.360;2023-04-06T05:29:21;15.50;;;13.90;;
3095;SDS011;1558;42.700;23.360;2023-04-06T05:31:52;16.47;;;12.73;;
3095;SDS011;1558;42.700;23.360;2023-04-06T05:34:20;13.53;;;12.17;;
3095;SDS011;1558;42.700;23.360;2023-04-06T05:36:49;16.17;;;12.37;;
3095;SDS011;1558;42.700;23.360;2023-04-06T05:39:17;13.73;;;12.33;;
3095;SDS011;1558;42.700;23.360;2023-04-06T05:41:47;35.33;;;31.87;;
3095;SDS011;1558;42.700;23.360;2023-04-06T05:44:16;17.73;;;15.83;;
3095;SDS011;1558;42.700;23.360;2023-04-06T05:46:44;15.90;;;13.20;;
3095;SDS011;1558;42.700;23.360;2023-04-06T05:49:12;14.77;;;13.27;;
3095;SDS011;1558;42.700;23.360;2023-04-06T05:51:40;14.67;;;13.03;;
3095;SDS011;1558;42.700;23.360;2023-04-06T05:54:08;16.70;;;13.23;;
3095;SDS011;1558;42.700;23.360;2023-04-06T05:56:36;14.37;;;12.77;;
3095;SDS011;1558;42.700;23.360;2023-04-06T05:59:06;15.33;;;13.67;;
3095;SDS011;1558;42.700;23.360;2023-04-06T06:01:35;16.67;;;14.43;;
3095;SDS011;1558;42.700;23.360;2023-04-06T06:04:03;15.07;;;13.50;;
3095;SDS011;1558;42.700;23.360;2023-04-06T06:06:31;16.53;;;13.93;;
3095;SDS011;1558;42.700;23.360;2023-04-06T06:08:59;18.03;;;14.87;;
3095;SDS011;1558;42.700;23.360;2023-04-06T06:11:29;17.50;;;14.60;;
3095;SDS011;1558;42.700;23.360;2023-04-06T06:13:59;31.57;;;16.30;;
3095;SDS011;1558;42.700;23.360;2023-04-06T06:16:28;22.10;;;15.43;;
3095;SDS011;1558;42.700;23.360;2023-04-06T06:18:57;17.20;;;15.43;;
3095;SDS011;1558;42.700;23.360;2023-04-06T06:21:25;19.63;;;14.90;;
3095;SDS011;1558;42.700;23.360;2023-04-06T06:23:53;15.97;;;14.27;;
3095;SDS011;1558;42.700;23.360;2023-04-06T06:26:21;16.83;;;15.00;;
3095;SDS011;1558;42.700;23.360;2023-04-06T06:28:49;17.03;;;14.93;;
3095;SDS011;1558;42.700;23.360;2023-04-06T06:31:17;15.00;;;13.47;;
3095;SDS011;1558;42.700;23.360;2023-04-06T06:33:48;14.83;;;13.23;;
3095;SDS011;1558;42.700;23.360;2023-04-06T06:36:17;14.97;;;12.73;;
3095;SDS011;1558;42.700;23.360;2023-04-06T06:38:45;16.93;;;12.50;;
3095;SDS011;1558;42.700;23.360;2023-04-06T06:41:14;17.73;;;15.60;;
3095;SDS011;1558;42.700;23.360;2023-04-06T06:43:42;15.90;;;13.60;;
3095;SDS011;1558;42.700;23.360;2023-04-06T06:46:10;16.07;;;13.80;;
3095;SDS011;1558;42.700;23.360;2023-04-06T06:48:39;16.70;;;13.97;;
3095;SDS011;1558;42.700;23.360;2023-04-06T06:51:08;15.97;;;13.93;;
3095;SDS011;1558;42.700;23.360;2023-04-06T06:53:38;14.70;;;13.20;;
3095;SDS011;1558;42.700;23.360;2023-04-06T06:56:06;15.83;;;14.23;;
3095;SDS011;1558;42.700;23.360;2023-04-06T06:58:34;17.97;;;13.60;;
3095;SDS011;1558;42.700;23.360;2023-04-06T07:01:02;16.80;;;15.00;;
3095;SDS011;1558;42.700;23.360;2023-04-06T07:03:31;15.33;;;13.73;;
3095;SDS011;1558;42.700;23.360;2023-04-06T07:05:59;14.83;;;13.23;;
3095;SDS011;1558;42.700;23.360;2023-04-06T07:08:29;15.87;;;13.90;;
3095;SDS011;1558;42.700;23.360;2023-04-06T07:10:57;17.00;;;15.20;;
3095;SDS011;1558;42.700;23.360;2023-04-06T07:13:25;14.50;;;12.97;;
3095;SDS011;1558;42.700;23.360;2023-04-06T07:15:53;15.50;;;13.47;;
3095;SDS011;1558;42.700;23.360;2023-04-06T07:18:22;17.83;;;13.80;;
3095;SDS011;1558;42.700;23.360;2023-04-06T07:20:50;18.60;;;14.37;;
3095;SDS011;1558;42.700;23.360;2023-04-06T07:23:18;16.13;;;14.33;;
3095;SDS011;1558;42.700;23.360;2023-04-06T07:25:48;15.20;;;13.60;;
3095;SDS011;1558;42.700;23.360;2023-04-06T07:28:17;15.83;;;14.20;;
3095;SDS011;1558;42.700;23.360;2023-04-06T07:30:45;15.53;;;13.67;;
3095;SDS011;1558;42.700;23.360;2023-04-06T07:33:13;15.37;;;13.77;;
3095;SDS011;1558;42.700;23.360;2023-04-06T07:35:41;18.97;;;13.90;;
3095;SDS011;1558;42.700;23.360;2023-04-06T07:38:10;15.00;;;13.50;;
3095;SDS011;1558;42.700;23.360;2023-04-06T07:40:38;14.67;;;13.17;;
3095;SDS011;1558;42.700;23.360;2023-04-06T07:43:07;14.63;;;13.33;;
3095;SDS011;1558;42.700;23.360;2023-04-06T07:45:36;14.87;;;13.40;;
3095;SDS011;1558;42.700;23.360;2023-04-06T07:48:04;14.07;;;12.70;;
3095;SDS011;1558;42.700;23.360;2023-04-06T07:50:32;15.80;;;14.30;;
3095;SDS011;1558;42.700;23.360;2023-04-06T07:53:00;15.37;;;13.97;;
3095;SDS011;1558;42.700;23.360;2023-04-06T07:55:29;14.43;;;13.03;;
3095;SDS011;1558;42.700;23.360;2023-04-06T07:57:57;13.83;;;12.37;;
3095;SDS011;1558;42.700;23.360;2023-04-06T08:00:26;14.53;;;12.53;;
3095;SDS011;1558;42.700;23.360;2023-04-06T08:02:54;13.37;;;11.97;;
3095;SDS011;1558;42.700;23.360;2023-04-06T08:05:23;13.93;;;11.87;;
3095;SDS011;1558;42.700;23.360;2023-04-06T08:07:51;15.33;;;13.17;;
3095;SDS011;1558;42.700;23.360;2023-04-06T08:10:19;13.87;;;12.50;;
3095;SDS011;1558;42.700;23.360;2023-04-06T08:12:47;13.03;;;11.93;;
3095;SDS011;1558;42.700;23.360;2023-04-06T08:15:15;13.30;;;11.90;;
3095;SDS011;1558;42.700;23.360;2023-04-06T08:17:45;13.40;;;12.13;;
3095;SDS011;1558;42.700;23.360;2023-04-06T08:20:14;12.43;;;11.30;;
3095;SDS011;1558;42.700;23.360;2023-04-06T08:22:42;12.27;;;11.00;;
3095;SDS011;1558;42.700;23.360;2023-04-06T08:25:10;12.77;;;11.53;;
3095;SDS011;1558;42.700;23.360;2023-04-06T08:27:38;12.00;;;10.83;;
3095;SDS011;1558;42.700;23.360;2023-04-06T08:30:06;12.57;;;11.47;;
3095;SDS011;1558;42.700;23.360;2023-04-06T08:32:35;12.73;;;10.40;;
3095;SDS011;1558;42.700;23.360;2023-04-06T08:35:04;12.57;;;10.10;;
3095;SDS011;1558;42.700;23.360;2023-04-06T08:37:33;11.70;;;10.50;;
3095;SDS011;1558;42.700;23.360;2023-04-06T08:40:01;11.83;;;9.90;;
3095;SDS011;1558;42.700;23.360;2023-04-06T08:42:31;17.13;;;11.27;;
3095;SDS011;1558;42.700;23.360;2023-04-06T08:45:00;11.77;;;10.47;;
3095;SDS011;1558;42.700;23.360;2023-04-06T08:47:28;13.43;;;10.93;;
3095;SDS011;1558;42.700;23.360;2023-04-06T08:49:56;12.23;;;10.97;;
3095;SDS011;1558;42.700;23.360;2023-04-06T08:52:29;12.77;;;11.43;;
3095;SDS011;1558;42.700;23.360;2023-04-06T08:54:59;12.23;;;10.97;;
3095;SDS011;1558;42.700;23.360;2023-04-06T08:57:28;10.80;;;9.73;;
3095;SDS011;1558;42.700;23.360;2023-04-06T09:00:01;12.23;;;11.13;;
3095;SDS011;1558;42.700;23.360;2023-04-06T09:02:30;12.10;;;10.90;;
3095;SDS011;1558;42.700;23.360;2023-04-06T09:05:00;11.77;;;10.77;;
3095;SDS011;1558;42.700;23.360;2023-04-06T09:07:37;11.47;;;10.57;;
3095;SDS011;1558;42.700;23.360;2023-04-06T09:10:08;11.60;;;10.43;;
3095;SDS011;1558;42.700;23.360;2023-04-06T09:12:37;12.37;;;11.27;;
3095;SDS011;1558;42.700;23.360;2023-04-06T09:15:17;13.73;;;12.50;;
3095;SDS011;1558;42.700;23.360;2023-04-06T09:17:51;13.30;;;12.00;;
3095;SDS011;1558;42.700;23.360;2023-04-06T09:20:22;13.53;;;12.13;;
3095;SDS011;1558;42.700;23.360;2023-04-06T09:22:56;12.27;;;11.00;;
3095;SDS011;1558;42.700;23.360;2023-04-06T09:25:24;12.07;;;10.87;;
3095;SDS011;1558;42.700;23.360;2023-04-06T09:28:00;11.10;;;10.10;;
3095;SDS011;1558;42.700;23.360;2023-04-06T09:30:32;12.27;;;9.83;;
3095;SDS011;1558;42.700;23.360;2023-04-06T09:33:09;10.50;;;9.53;;
3095;SDS011;1558;42.700;23.360;2023-04-06T09:35:53;12.13;;;10.93;;
3095;SDS011;1558;42.700;23.360;2023-04-06T09:38:22;13.10;;;10.87;;
3095;SDS011;1558;42.700;23.360;2023-04-06T09:40:50;12.07;;;10.80;;
3095;SDS011;1558;42.700;23.360;2023-04-06T09:43:26;10.83;;;9.70;;
3095;SDS011;1558;42.700;23.360;2023-04-06T09:45:55;12.23;;;10.30;;
3095;SDS011;1558;42.700;23.360;2023-04-06T09:48:25;12.77;;;10.87;;
3095;SDS011;1558;42.700;23.360;2023-04-06T09:50:58;11.20;;;10.20;;
3095;SDS011;1558;42.700;23.360;2023-04-06T09:53:32;10.90;;;9.97;;
3095;SDS011;1558;42.700;23.360;2023-04-06T09:56:05;10.53;;;9.50;;
3095;SDS011;1558;42.700;23.360;2023-04-06T09:58:39;16.40;;;10.40;;
3095;SDS011;1558;42.700;23.360;2023-04-06T10:01:12;11.53;;;10.53;;
3095;SDS011;1558;42.700;23.360;2023-04-06T10:03:45;14.23;;;10.80;;
3095;SDS011;1558;42.700;23.360;2023-04-06T10:06:39;11.73;;;9.70;;
3095;SDS011;1558;42.700;23.360;2023-04-06T10:09:10;11.57;;;10.47;;
3095;SDS011;1558;42.700;23.360;2023-04-06T10:11:41;11.27;;;10.10;;
3095;SDS011;1558;42.700;23.360;2023-04-06T10:14:09;11.13;;;10.13;;
3095;SDS011;1558;42.700;23.360;2023-04-06T10:16:39;10.90;;;10.00;;
3095;SDS011;1558;42.700;23.360;2023-04-06T10:19:09;11.80;;;9.57;;
3095;SDS011;1558;42.700;23.360;2023-04-06T10:21:45;12.10;;;9.83;;
3095;SDS011;1558;42.700;23.360;2023-04-06T10:24:20;10.37;;;9.47;;
3095;SDS011;1558;42.700;23.360;2023-04-06T10:26:56;10.83;;;9.60;;
3095;SDS011;1558;42.700;23.360;2023-04-06T10:29:26;11.10;;;10.03;;
3095;SDS011;1558;42.700;23.360;2023-04-06T10:31:57;11.60;;;9.90;;
3095;SDS011;1558;42.700;23.360;2023-04-06T10:34:34;11.13;;;10.13;;
3095;SDS011;1558;42.700;23.360;2023-04-06T10:37:10;12.17;;;10.60;;
3095;SDS011;1558;42.700;23.360;2023-04-06T10:39:49;11.47;;;10.07;;
3095;SDS011;1558;42.700;23.360;2023-04-06T10:42:24;10.60;;;9.50;;
3095;SDS011;1558;42.700;23.360;2023-04-06T10:45:05;12.70;;;10.13;;
3095;SDS011;1558;42.700;23.360;2023-04-06T10:47:38;11.77;;;10.17;;
3095;SDS011;1558;42.700;23.360;2023-04-06T10:50:07;9.70;;;8.80;;
3095;SDS011;1558;42.700;23.360;2023-04-06T10:52:37;11.20;;;9.63;;
3095;SDS011;1558;42.700;23.360;2023-04-06T10:55:07;11.47;;;10.03;;
3095;SDS011;1558;42.700;23.360;2023-04-06T10:57:36;10.80;;;9.80;;
3095;SDS011;1558;42.700;23.360;2023-04-06T11:00:05;11.70;;;10.57;;
3095;SDS011;1558;42.700;23.360;2023-04-06T11:02:37;11.17;;;10.10;;
3095;SDS011;1558;42.700;23.360;2023-04-06T11:05:06;9.30;;;8.50;;
3095;SDS011;1558;42.700;23.360;2023-04-06T11:07:35;10.57;;;9.63;;
3095;SDS011;1558;42.700;23.360;2023-04-06T11:10:03;11.17;;;10.17;;
3095;SDS011;1558;42.700;23.360;2023-04-06T11:12:44;12.13;;;10.23;;
3095;SDS011;1558;42.700;23.360;2023-04-06T11:15:12;10.60;;;9.57;;
3095;SDS011;1558;42.700;23.360;2023-04-06T11:17:41;11.40;;;10.00;;
3095;SDS011;1558;42.700;23.360;2023-04-06T11:20:11;11.70;;;10.43;;
3095;SDS011;1558;42.700;23.360;2023-04-06T11:22:47;10.93;;;9.93;;
3095;SDS011;1558;42.700;23.360;2023-04-06T11:25:17;10.20;;;9.30;;
3095;SDS011;1558;42.700;23.360;2023-04-06T11:27:47;10.80;;;9.80;;
3095;SDS011;1558;42.700;23.360;2023-04-06T11:30:15;10.93;;;9.90;;
3095;SDS011;1558;42.700;23.360;2023-04-06T11:32:44;11.37;;;10.30;;
3095;SDS011;1558;42.700;23.360;2023-04-06T11:35:19;11.07;;;10.17;;
3095;SDS011;1558;42.700;23.360;2023-04-06T11:37:48;10.63;;;9.73;;
3095;SDS011;1558;42.700;23.360;2023-04-06T11:40:20;11.63;;;10.57;;
3095;SDS011;1558;42.700;23.360;2023-04-06T11:42:53;10.10;;;9.20;;
3095;SDS011;1558;42.700;23.360;2023-04-06T11:45:22;10.97;;;9.97;;
3095;SDS011;1558;42.700;23.360;2023-04-06T11:47:57;10.37;;;9.37;;
3095;SDS011;1558;42.700;23.360;2023-04-06T11:50:31;10.87;;;9.70;;
3095;SDS011;1558;42.700;23.360;2023-04-06T11:53:00;10.63;;;9.63;;
3095;SDS011;1558;42.700;23.360;2023-04-06T11:55:36;9.47;;;8.63;;
3095;SDS011;1558;42.700;23.360;2023-04-06T11:58:07;13.27;;;10.30;;
3095;SDS011;1558;42.700;23.360;2023-04-06T12:00:36;11.67;;;10.53;;
3095;SDS011;1558;42.700;23.360;2023-04-06T12:03:04;11.20;;;9.10;;
3095;SDS011;1558;42.700;23.360;2023-04-06T12:05:32;10.60;;;9.20;;
3095;SDS011;1558;42.700;23.360;2023-04-06T12:08:01;11.47;;;9.90;;
3095;SDS011;1558;42.700;23.360;2023-04-06T12:10:29;10.80;;;9.60;;
3095;SDS011;1558;42.700;23.360;2023-04-06T12:12:57;10.63;;;9.63;;
3095;SDS011;1558;42.700;23.360;2023-04-06T12:15:27;11.57;;;10.57;;
3095;SDS011;1558;42.700;23.360;2023-04-06T12:17:55;11.03;;;10.03;;
3095;SDS011;1558;42.700;23.360;2023-04-06T12:20:23;10.70;;;9.70;;
3095;SDS011;1558;42.700;23.360;2023-04-06T12:22:53;12.13;;;10.80;;
3095;SDS011;1558;42.700;23.360;2023-04-06T12:25:21;11.00;;;9.60;;
3095;SDS011;1558;42.700;23.360;2023-04-06T12:27:49;10.57;;;9.57;;
3095;SDS011;1558;42.700;23.360;2023-04-06T12:30:17;10.77;;;9.77;;
3095;SDS011;1558;42.700;23.360;2023-04-06T12:32:47;10.00;;;9.20;;
3095;SDS011;1558;42.700;23.360;2023-04-06T12:35:16;10.00;;;8.57;;
3095;SDS011;1558;42.700;23.360;2023-04-06T12:37:44;10.53;;;9.53;;
3095;SDS011;1558;42.700;23.360;2023-04-06T12:40:12;11.27;;;10.07;;
3095;SDS011;1558;42.700;23.360;2023-04-06T12:42:41;12.17;;;10.97;;
3095;SDS011;1558;42.700;23.360;2023-04-06T12:45:09;10.70;;;9.70;;
3095;SDS011;1558;42.700;23.360;2023-04-06T12:47:38;10.07;;;9.20;;
3095;SDS011;1558;42.700;23.360;2023-04-06T12:50:08;9.77;;;8.77;;
3095;SDS011;1558;42.700;23.360;2023-04-06T12:52:36;9.10;;;8.30;;
3095;SDS011;1558;42.700;23.360;2023-04-06T12:55:05;9.77;;;8.77;;
3095;SDS011;1558;42.700;23.360;2023-04-06T12:57:34;11.53;;;10.53;;
3095;SDS011;1558;42.700;23.360;2023-04-06T13:00:04;11.17;;;10.17;;
3095;SDS011;1558;42.700;23.360;2023-04-06T13:02:34;9.40;;;8.37;;
3095;SDS011;1558;42.700;23.360;2023-04-06T13:05:03;9.83;;;8.83;;
3095;SDS011;1558;42.700;23.360;2023-04-06T13:07:33;10.47;;;9.30;;
3095;SDS011;1558;42.700;23.360;2023-04-06T13:10:03;10.10;;;9.10;;
3095;SDS011;1558;42.700;23.360;2023-04-06T13:12:32;10.97;;;9.73;;
3095;SDS011;1558;42.700;23.360;2023-04-06T13:15:01;11.97;;;10.77;;
3095;SDS011;1558;42.700;23.360;2023-04-06T13:17:29;11.83;;;10.73;;
3095;SDS011;1558;42.700;23.360;2023-04-06T13:19:57;10.07;;;9.17;;
3095;SDS011;1558;42.700;23.360;2023-04-06T13:22:25;10.20;;;9.23;;
3095;SDS011;1558;42.700;23.360;2023-04-06T13:24:55;11.80;;;10.27;;
3095;SDS011;1558;42.700;23.360;2023-04-06T13:27:23;10.57;;;9.63;;
3095;SDS011;1558;42.700;23.360;2023-04-06T13:29:51;11.43;;;10.33;;
3095;SDS011;1558;42.700;23.360;2023-04-06T13:32:20;10.97;;;9.97;;
3095;SDS011;1558;42.700;23.360;2023-04-06T13:34:48;16.70;;;11.07;;
3095;SDS011;1558;42.700;23.360;2023-04-06T13:37:16;10.23;;;9.23;;
3095;SDS011;1558;42.700;23.360;2023-04-06T13:39:44;10.17;;;9.27;;
3095;SDS011;1558;42.700;23.360;2023-04-06T13:42:14;10.60;;;9.70;;
3095;SDS011;1558;42.700;23.360;2023-04-06T13:44:42;10.27;;;9.27;;
3095;SDS011;1558;42.700;23.360;2023-04-06T13:47:10;9.70;;;8.80;;
3095;SDS011;1558;42.700;23.360;2023-04-06T13:49:38;9.30;;;8.30;;
3095;SDS011;1558;42.700;23.360;2023-04-06T13:52:07;9.53;;;8.73;;
3095;SDS011;1558;42.700;23.360;2023-04-06T13:54:36;10.87;;;9.80;;
3095;SDS011;1558;42.700;23.360;2023-04-06T13:57:04;10.07;;;9.07;;
3095;SDS011;1558;42.700;23.360;2023-04-06T13:59:35;10.00;;;9.00;;
3095;SDS011;1558;42.700;23.360;2023-04-06T14:02:04;9.40;;;8.60;;
3095;SDS011;1558;42.700;23.360;2023-04-06T14:04:33;12.23;;;9.00;;
3095;SDS011;1558;42.700;23.360;2023-04-06T14:07:02;10.90;;;9.63;;
3095;SDS011;1558;42.700;23.360;2023-04-06T14:09:33;9.83;;;8.83;;
3095;SDS011;1558;42.700;23.360;2023-04-06T14:12:01;10.70;;;9.03;;
3095;SDS011;1558;42.700;23.360;2023-04-06T14:14:29;10.97;;;9.23;;
3095;SDS011;1558;42.700;23.360;2023-04-06T14:16:59;10.60;;;9.50;;
3095;SDS011;1558;42.700;23.360;2023-04-06T14:19:27;10.60;;;9.70;;
3095;SDS011;1558;42.700;23.360;2023-04-06T14:21:56;9.70;;;8.90;;
3095;SDS011;1558;42.700;23.360;2023-04-06T14:24:25;10.70;;;9.70;;
3095;SDS011;1558;42.700;23.360;2023-04-06T14:26:53;12.43;;;9.63;;
3095;SDS011;1558;42.700;23.360;2023-04-06T14:29:22;11.90;;;10.03;;
3095;SDS011;1558;42.700;23.360;2023-04-06T14:31:50;10.73;;;9.57;;
3095;SDS011;1558;42.700;23.360;2023-04-06T14:34:27;11.10;;;10.10;;
3095;SDS011;1558;42.700;23.360;2023-04-06T14:36:55;11.37;;;10.27;;
3095;SDS011;1558;42.700;23.360;2023-04-06T14:39:23;11.57;;;10.50;;
3095;SDS011;1558;42.700;23.360;2023-04-06T14:41:52;12.37;;;11.10;;
3095;SDS011;1558;42.700;23.360;2023-04-06T14:44:21;12.30;;;11.00;;
3095;SDS011;1558;42.700;23.360;2023-04-06T14:46:49;11.43;;;10.43;;
3095;SDS011;1558;42.700;23.360;2023-04-06T14:49:18;12.23;;;11.03;;
3095;SDS011;1558;42.700;23.360;2023-04-06T14:51:47;12.17;;;10.90;;